createdAt,value
2023-05-20T00:00:16.468Z,101711.19
2023-05-20T00:02:42.913Z,101713.56
2023-05-20T00:05:09.685Z,101726.78
2023-05-20T00:07:36.189Z,101722.91
2023-05-20T00:10:02.667Z,101728.00
2023-05-20T00:12:29.097Z,101722.28
2023-05-20T00:14:56.118Z,101726.66
2023-05-20T00:17:22.676Z,101727.34
2023-05-20T00:19:49.076Z,101730.91
2023-05-20T00:22:15.462Z,101727.03
2023-05-20T00:24:42.019Z,101733.13
2023-05-20T00:27:08.383Z,101727.56
2023-05-20T00:29:35.001Z,101727.38
2023-05-20T00:32:01.608Z,101727.22
2023-05-20T00:34:28.557Z,101736.88
2023-05-20T00:36:54.947Z,101734.81
2023-05-20T00:39:21.382Z,101730.09
2023-05-20T00:41:47.762Z,101720.78
2023-05-20T00:44:14.240Z,101729.41
2023-05-20T00:46:40.731Z,101731.75
2023-05-20T00:49:07.240Z,101722.31
2023-05-20T00:51:34.626Z,101726.53
2023-05-20T00:54:01.047Z,101725.16
2023-05-20T00:56:27.824Z,101727.50
2023-05-20T00:58:54.370Z,101715.50
2023-05-20T01:01:21.068Z,101720.38
2023-05-20T01:03:48.855Z,101714.44
2023-05-20T01:06:15.365Z,101722.88
2023-05-20T01:08:41.889Z,101709.00
2023-05-20T01:11:12.695Z,101714.75
2023-05-20T01:13:49.980Z,101709.69
2023-05-20T01:16:18.638Z,101711.00
2023-05-20T01:18:50.581Z,101724.84
2023-05-20T01:21:18.470Z,101721.78
2023-05-20T01:23:45.455Z,101714.03
2023-05-20T01:26:14.754Z,101713.31
2023-05-20T01:28:45.639Z,101714.50
2023-05-20T01:31:30.371Z,101717.38
2023-05-20T01:33:58.383Z,101718.72
2023-05-20T01:36:27.448Z,101712.63
2023-05-20T01:38:54.735Z,101711.06
2023-05-20T01:41:23.806Z,101717.66
2023-05-20T01:43:50.427Z,101715.28
2023-05-20T01:46:16.925Z,101725.59
2023-05-20T01:48:43.319Z,101718.66
2023-05-20T01:51:09.776Z,101715.41
2023-05-20T01:53:36.260Z,101712.03
2023-05-20T01:56:02.935Z,101708.63
2023-05-20T01:58:29.325Z,101704.41
2023-05-20T02:00:55.948Z,101708.28
2023-05-20T02:03:22.618Z,101713.00
2023-05-20T02:05:49.129Z,101707.06
2023-05-20T02:08:15.524Z,101712.81
2023-05-20T02:10:41.980Z,101710.41
2023-05-20T02:13:08.429Z,101716.13
2023-05-20T02:15:34.992Z,101719.16
2023-05-20T02:18:02.330Z,101716.78
2023-05-20T02:20:28.793Z,101708.16
2023-05-20T02:22:55.352Z,101703.75
2023-05-20T02:25:21.768Z,101705.91
2023-05-20T02:27:48.125Z,101710.63
2023-05-20T02:30:15.090Z,101702.00
2023-05-20T02:32:42.314Z,101709.41
2023-05-20T02:35:08.824Z,101700.81
2023-05-20T02:37:35.347Z,101711.00
2023-05-20T02:40:01.739Z,101702.41
2023-05-20T02:42:29.606Z,101708.13
2023-05-20T02:44:58.446Z,101706.72
2023-05-20T02:47:25.802Z,101709.75
2023-05-20T02:49:52.266Z,101701.13
2023-05-20T02:52:18.677Z,101708.34
2023-05-20T02:54:45.040Z,101706.81
2023-05-20T02:57:11.446Z,101704.28
2023-05-20T02:59:37.963Z,101707.13
2023-05-20T03:02:04.905Z,101702.88
2023-05-20T03:04:31.740Z,101713.03
2023-05-20T03:06:58.314Z,101700.69
2023-05-20T03:09:25.206Z,101708.09
2023-05-20T03:11:51.614Z,101704.69
2023-05-20T03:14:18.019Z,101704.84
2023-05-20T03:16:44.417Z,101714.09
2023-05-20T03:19:10.995Z,101709.88
2023-05-20T03:21:37.511Z,101711.03
2023-05-20T03:24:04.159Z,101705.91
2023-05-20T03:26:33.092Z,101717.03
2023-05-20T03:28:59.522Z,101713.81
2023-05-20T03:31:25.973Z,101716.81
2023-05-20T03:33:52.378Z,101708.03
2023-05-20T03:36:18.785Z,101709.19
2023-05-20T03:38:45.388Z,101704.94
2023-05-20T03:41:11.880Z,101713.16
2023-05-20T03:43:38.353Z,101715.19
2023-05-20T03:46:04.782Z,101715.47
2023-05-20T03:48:31.416Z,101713.94
2023-05-20T03:50:57.824Z,101713.28
2023-05-20T03:53:24.367Z,101717.13
2023-05-20T03:55:50.801Z,101709.03
2023-05-20T03:58:17.417Z,101703.78
2023-05-20T04:00:43.999Z,101713.72
2023-05-20T04:03:10.661Z,101708.47
2023-05-20T04:05:37.414Z,101703.06
2023-05-20T04:08:05.067Z,101713.88
2023-05-20T04:10:32.214Z,101707.47
2023-05-20T04:12:58.835Z,101707.47
2023-05-20T04:15:25.287Z,101708.47
2023-05-20T04:17:52.282Z,101711.03
2023-05-20T04:20:19.926Z,101719.81
2023-05-20T04:22:46.579Z,101715.25
2023-05-20T04:25:14.656Z,101716.09
2023-05-20T04:27:41.043Z,101718.34
2023-05-20T04:30:07.860Z,101724.59
2023-05-20T04:32:37.242Z,101718.19
2023-05-20T04:35:07.657Z,101718.88
2023-05-20T04:37:34.813Z,101723.13
2023-05-20T04:40:03.053Z,101723.69
2023-05-20T04:42:29.824Z,101723.38
2023-05-20T04:44:56.258Z,101721.19
2023-05-20T04:47:22.623Z,101724.44
2023-05-20T04:49:50.257Z,101715.88
2023-05-20T04:52:16.641Z,101719.13
2023-05-20T04:54:43.154Z,101714.09
2023-05-20T04:57:09.585Z,101723.44
2023-05-20T04:59:35.957Z,101723.13
2023-05-20T05:02:02.382Z,101722.47
2023-05-20T05:04:28.899Z,101718.47
2023-05-20T05:06:55.383Z,101721.69
2023-05-20T05:09:22.532Z,101712.13
2023-05-20T05:11:48.962Z,101706.25
2023-05-20T05:14:15.468Z,101717.44
2023-05-20T05:16:41.889Z,101719.69
2023-05-20T05:19:08.781Z,101707.56
2023-05-20T05:21:35.277Z,101715.19
2023-05-20T05:24:01.696Z,101715.56
2023-05-20T05:26:28.083Z,101707.84
2023-05-20T05:28:55.375Z,101712.56
2023-05-20T05:31:21.924Z,101705.88
2023-05-20T05:33:48.331Z,101706.06
2023-05-20T05:36:15.791Z,101701.00
2023-05-20T05:38:42.528Z,101690.56
2023-05-20T05:41:08.960Z,101696.47
2023-05-20T05:43:35.623Z,101690.59
2023-05-20T05:46:02.373Z,101697.38
2023-05-20T05:48:28.771Z,101694.19
2023-05-20T05:50:55.205Z,101692.84
2023-05-20T05:53:21.885Z,101690.66
2023-05-20T05:55:48.327Z,101683.91
2023-05-20T05:58:14.842Z,101694.25
2023-05-20T06:00:41.599Z,101694.75
2023-05-20T06:03:08.224Z,101700.53
2023-05-20T06:05:35.030Z,101700.19
2023-05-20T06:08:01.536Z,101691.09
2023-05-20T06:10:27.898Z,101696.16
2023-05-20T06:12:54.301Z,101692.44
2023-05-20T06:15:20.731Z,101693.13
2023-05-20T06:17:47.369Z,101698.03
2023-05-20T06:20:13.947Z,101707.50
2023-05-20T06:22:40.679Z,101692.63
2023-05-20T06:25:07.781Z,101693.03
2023-05-20T06:27:34.211Z,101688.78
2023-05-20T06:30:00.605Z,101677.47
2023-05-20T06:32:27.799Z,101684.91
2023-05-20T06:34:54.190Z,101686.09
2023-05-20T06:37:20.637Z,101682.72
2023-05-20T06:39:47.713Z,101676.63
2023-05-20T06:42:14.093Z,101680.34
2023-05-20T06:44:40.544Z,101676.13
2023-05-20T06:47:07.004Z,101672.88
2023-05-20T06:49:33.364Z,101671.34
2023-05-20T06:51:59.752Z,101668.97
2023-05-20T06:54:26.218Z,101661.19
2023-05-20T06:56:52.582Z,101656.78
2023-05-20T06:59:19.036Z,101668.78
2023-05-20T07:01:45.550Z,101662.69
2023-05-20T07:04:12.046Z,101658.25
2023-05-20T07:06:38.576Z,101660.28
2023-05-20T07:09:05.419Z,101655.84
2023-05-20T07:11:31.901Z,101652.28
2023-05-20T07:13:58.318Z,101653.13
2023-05-20T07:16:24.897Z,101655.13
2023-05-20T07:18:51.388Z,101652.38
2023-05-20T07:21:17.965Z,101656.22
2023-05-20T07:23:44.433Z,101643.00
2023-05-20T07:26:10.905Z,101649.56
2023-05-20T07:28:38.402Z,101643.44
2023-05-20T07:31:05.060Z,101652.72
2023-05-20T07:33:31.710Z,101639.28
2023-05-20T07:35:58.136Z,101637.72
2023-05-20T07:38:24.830Z,101649.53
2023-05-20T07:40:51.384Z,101642.56
2023-05-20T07:43:17.797Z,101637.63
2023-05-20T07:45:44.239Z,101649.78
2023-05-20T07:48:10.865Z,101633.34
2023-05-20T07:50:37.361Z,101631.09
2023-05-20T07:53:03.801Z,101644.28
2023-05-20T07:55:31.155Z,101633.28
2023-05-20T07:57:57.749Z,101639.19
2023-05-20T08:00:24.346Z,101631.72
2023-05-20T08:02:50.975Z,101639.03
2023-05-20T08:05:17.619Z,101632.56
2023-05-20T08:07:44.024Z,101645.13
2023-05-20T08:10:10.738Z,101620.34
2023-05-20T08:12:37.276Z,101627.72
2023-05-20T08:15:04.309Z,101628.69
2023-05-20T08:17:30.774Z,101620.47
2023-05-20T08:19:57.159Z,101628.53
2023-05-20T08:22:23.574Z,101634.91
2023-05-20T08:24:49.964Z,101610.38
2023-05-20T08:27:16.341Z,101610.09
2023-05-20T08:29:44.856Z,101615.25
2023-05-20T08:32:11.740Z,101607.66
2023-05-20T08:34:38.202Z,101621.81
2023-05-20T08:37:04.816Z,101611.13
2023-05-20T08:39:31.299Z,101613.56
2023-05-20T08:41:58.636Z,101608.69
2023-05-20T08:44:26.681Z,101599.34
2023-05-20T08:46:53.792Z,101606.38
2023-05-20T08:49:20.621Z,101608.50
2023-05-20T08:51:48.169Z,101599.59
2023-05-20T08:54:16.782Z,101612.13
2023-05-20T08:56:43.993Z,101596.66
2023-05-20T08:59:10.503Z,101606.53
2023-05-20T09:01:43.325Z,101600.03
2023-05-20T09:04:09.914Z,101595.41
2023-05-20T09:06:43.794Z,101607.13
2023-05-20T09:09:11.950Z,101606.13
2023-05-20T09:11:40.112Z,101589.97
2023-05-20T09:14:06.566Z,101595.41
2023-05-20T09:16:33.728Z,101591.69
2023-05-20T09:19:00.212Z,101589.41
2023-05-20T09:21:27.930Z,101591.16
2023-05-20T09:23:57.247Z,101592.06
2023-05-20T09:26:24.819Z,101586.53
2023-05-20T09:28:51.510Z,101589.09
2023-05-20T09:31:17.967Z,101574.28
2023-05-20T09:33:44.368Z,101583.38
2023-05-20T09:36:11.549Z,101569.16
2023-05-20T09:38:39.842Z,101572.13
2023-05-20T09:41:13.813Z,101572.56
2023-05-20T09:43:40.928Z,101563.59
2023-05-20T09:46:08.369Z,101552.56
2023-05-20T09:48:38.395Z,101562.06
2023-05-20T09:51:06.156Z,101548.69
2023-05-20T09:53:32.558Z,101548.78
2023-05-20T09:55:59.133Z,101542.34
2023-05-20T09:58:25.986Z,101548.69
2023-05-20T10:00:53.904Z,101539.06
2023-05-20T10:03:24.031Z,101545.41
2023-05-20T10:06:10.802Z,101563.47
2023-05-20T10:08:48.003Z,101533.66
2023-05-20T10:11:26.263Z,101534.50
2023-05-20T10:14:15.901Z,101538.28
2023-05-20T10:16:50.537Z,101536.22
2023-05-20T10:19:29.040Z,101545.06
2023-05-20T10:22:00.160Z,101546.34
2023-05-20T10:24:44.026Z,101538.16
2023-05-20T10:27:15.435Z,101532.47
2023-05-20T10:29:52.508Z,101530.81
2023-05-20T10:32:33.239Z,101524.50
2023-05-20T10:35:01.737Z,101533.31
2023-05-20T10:37:30.434Z,101523.84
2023-05-20T10:40:13.450Z,101511.44
2023-05-20T10:42:40.884Z,101520.69
2023-05-20T10:45:08.393Z,101523.84
2023-05-20T10:47:35.503Z,101526.16
2023-05-20T10:50:02.671Z,101522.63
2023-05-20T10:52:34.026Z,101515.47
2023-05-20T10:55:01.450Z,101513.78
2023-05-20T10:57:29.317Z,101520.28
2023-05-20T10:59:56.325Z,101507.69
2023-05-20T11:02:26.842Z,101500.53
2023-05-20T11:04:55.889Z,101488.97
2023-05-20T11:07:29.762Z,101491.06
2023-05-20T11:09:59.579Z,101480.53
2023-05-20T11:12:27.437Z,101484.94
2023-05-20T11:14:54.380Z,101483.69
2023-05-20T11:17:21.129Z,101471.44
2023-05-20T11:19:48.464Z,101468.91
2023-05-20T11:22:15.145Z,101462.53
2023-05-20T11:24:41.591Z,101463.97
2023-05-20T11:27:08.093Z,101460.16
2023-05-20T11:29:35.158Z,101459.50
2023-05-20T11:32:01.633Z,101463.69
2023-05-20T11:34:38.268Z,101458.22
2023-05-20T11:37:09.536Z,101459.91
2023-05-20T11:39:37.379Z,101456.31
2023-05-20T11:42:03.967Z,101444.94
2023-05-20T11:44:30.639Z,101448.50
2023-05-20T11:47:01.920Z,101443.78
2023-05-20T11:49:28.667Z,101463.13
2023-05-20T11:51:56.459Z,101462.06
2023-05-20T11:54:24.535Z,101460.19
2023-05-20T11:56:50.930Z,101464.56
2023-05-20T11:59:17.393Z,101463.53
2023-05-20T12:01:44.307Z,101466.03
2023-05-20T12:04:11.978Z,101454.47
2023-05-20T12:06:38.740Z,101460.94
2023-05-20T12:09:07.181Z,101454.59
2023-05-20T12:11:35.704Z,101438.94
2023-05-20T12:14:03.914Z,101446.88
2023-05-20T12:16:32.709Z,101457.34
2023-05-20T12:18:59.740Z,101459.34
2023-05-20T12:21:26.360Z,101452.28
2023-05-20T12:23:57.543Z,101443.56
2023-05-20T12:26:25.806Z,101444.75
2023-05-20T12:28:52.763Z,101434.56
2023-05-20T12:31:19.712Z,101432.59
2023-05-20T12:33:46.365Z,101441.56
2023-05-20T12:36:13.977Z,101439.78
2023-05-20T12:38:40.552Z,101433.41
2023-05-20T12:41:06.912Z,101433.31
2023-05-20T12:43:35.512Z,101427.41
2023-05-20T12:46:03.780Z,101427.97
2023-05-20T12:48:30.268Z,101429.91
2023-05-20T12:50:56.669Z,101425.72
2023-05-20T12:53:23.145Z,101422.44
2023-05-20T12:55:49.572Z,101418.94
2023-05-20T12:58:16.033Z,101416.50
2023-05-20T13:00:42.506Z,101418.47
2023-05-20T13:03:09.053Z,101413.94
2023-05-20T13:05:35.479Z,101414.84
2023-05-20T13:08:01.900Z,101419.72
2023-05-20T13:10:28.488Z,101427.63
2023-05-20T13:12:56.493Z,101426.25
2023-05-20T13:15:22.948Z,101414.97
2023-05-20T13:17:49.569Z,101419.91
2023-05-20T13:20:19.058Z,101416.19
2023-05-20T13:22:46.275Z,101409.47
2023-05-20T13:25:12.706Z,101398.13
2023-05-20T13:27:39.309Z,101404.66
2023-05-20T13:30:06.808Z,101396.44
2023-05-20T13:32:33.328Z,101397.44
2023-05-20T13:34:59.909Z,101393.38
2023-05-20T13:37:26.411Z,101394.72
2023-05-20T13:39:52.902Z,101372.78
2023-05-20T13:42:19.317Z,101375.31
2023-05-20T13:44:45.699Z,101386.47
2023-05-20T13:47:12.187Z,101391.56
2023-05-20T13:49:38.619Z,101386.53
2023-05-20T13:52:05.585Z,101383.19
2023-05-20T13:54:32.029Z,101383.19
2023-05-20T13:56:58.530Z,101378.56
2023-05-20T13:59:25.005Z,101373.69
2023-05-20T14:01:51.442Z,101375.16
2023-05-20T14:04:17.851Z,101368.59
2023-05-20T14:06:44.245Z,101373.44
2023-05-20T14:09:10.832Z,101377.09
2023-05-20T14:11:37.288Z,101368.56
2023-05-20T14:14:03.736Z,101364.41
2023-05-20T14:16:31.575Z,101356.06
2023-05-20T14:18:58.118Z,101356.06
2023-05-20T14:21:24.499Z,101362.59
2023-05-20T14:23:50.880Z,101351.03
2023-05-20T14:26:17.235Z,101344.09
2023-05-20T14:28:43.889Z,101336.59
2023-05-20T14:31:10.945Z,101338.25
2023-05-20T14:33:37.353Z,101324.09
2023-05-20T14:36:04.106Z,101344.03
2023-05-20T14:38:30.858Z,101338.28
2023-05-20T14:40:57.228Z,101349.19
2023-05-20T14:43:23.614Z,101334.78
2023-05-20T14:45:50.368Z,101333.91
2023-05-20T14:48:17.702Z,101322.03
2023-05-20T14:50:44.131Z,101323.47
2023-05-20T14:53:29.307Z,101328.75
2023-05-20T14:55:55.898Z,101316.09
2023-05-20T14:58:22.300Z,101311.09
2023-05-20T15:00:48.690Z,101311.75
2023-05-20T15:03:15.699Z,101308.66
2023-05-20T15:05:42.518Z,101320.66
2023-05-20T15:08:08.932Z,101317.06
2023-05-20T15:10:36.049Z,101320.88
2023-05-20T15:13:02.665Z,101322.56
2023-05-20T15:15:29.075Z,101315.78
2023-05-20T15:17:56.487Z,101314.13
2023-05-20T15:20:23.000Z,101314.34
2023-05-20T15:22:49.406Z,101306.59
2023-05-20T15:25:15.861Z,101312.44
2023-05-20T15:27:42.765Z,101299.75
2023-05-20T15:30:10.096Z,101299.28
2023-05-20T15:32:36.685Z,101304.69
2023-05-20T15:35:04.159Z,101313.06
2023-05-20T15:37:30.569Z,101304.38
2023-05-20T15:39:56.941Z,101302.25
2023-05-20T15:42:23.354Z,101294.66
2023-05-20T15:44:49.849Z,101307.66
2023-05-20T15:47:16.389Z,101297.28
2023-05-20T15:49:42.796Z,101305.06
2023-05-20T15:52:09.200Z,101289.47
2023-05-20T15:54:35.672Z,101294.31
2023-05-20T15:57:02.893Z,101288.69
2023-05-20T15:59:29.317Z,101285.34
2023-05-20T16:01:55.787Z,101286.22
2023-05-20T16:04:22.373Z,101284.31
2023-05-20T16:06:48.908Z,101290.97
2023-05-20T16:09:15.329Z,101282.19
2023-05-20T16:11:41.748Z,101282.59
2023-05-20T16:14:08.141Z,101281.63
2023-05-20T16:16:36.189Z,101287.19
2023-05-20T16:19:02.921Z,101293.00
2023-05-20T16:21:29.333Z,101287.19
2023-05-20T16:23:55.723Z,101283.31
2023-05-20T16:26:22.612Z,101283.84
2023-05-20T16:28:49.053Z,101281.16
2023-05-20T16:31:15.485Z,101281.22
2023-05-20T16:33:42.294Z,101275.78
2023-05-20T16:36:08.705Z,101275.03
2023-05-20T16:38:35.102Z,101281.00
2023-05-20T16:41:01.838Z,101280.66
2023-05-20T16:43:28.260Z,101274.22
2023-05-20T16:45:54.690Z,101283.16
2023-05-20T16:48:21.295Z,101281.75
2023-05-20T16:50:47.688Z,101295.47
2023-05-20T16:53:16.230Z,101283.69
2023-05-20T16:55:42.832Z,101285.19
2023-05-20T16:58:09.203Z,101294.25
2023-05-20T17:00:36.013Z,101300.41
2023-05-20T17:03:02.611Z,101293.69
2023-05-20T17:05:28.988Z,101294.34
2023-05-20T17:07:59.055Z,101288.47
2023-05-20T17:10:25.676Z,101290.00
2023-05-20T17:12:52.024Z,101294.19
2023-05-20T17:15:18.492Z,101294.22
2023-05-20T17:17:44.902Z,101293.19
2023-05-20T17:20:11.755Z,101293.22
2023-05-20T17:22:38.216Z,101303.13
2023-05-20T17:25:05.372Z,101301.03
2023-05-20T17:27:33.022Z,101297.28
2023-05-20T17:29:59.785Z,101302.31
2023-05-20T17:32:26.364Z,101298.34
2023-05-20T17:34:52.833Z,101298.75
2023-05-20T17:37:19.442Z,101304.63
2023-05-20T17:39:46.122Z,101306.31
2023-05-20T17:42:12.552Z,101306.09
2023-05-20T17:44:39.009Z,101298.34
2023-05-20T17:47:05.391Z,101306.97
2023-05-20T17:49:31.838Z,101308.22
2023-05-20T17:51:58.246Z,101302.38
2023-05-20T17:54:24.603Z,101297.34
2023-05-20T17:56:51.204Z,101312.25
2023-05-20T17:59:17.678Z,101310.78
2023-05-20T18:01:44.655Z,101304.88
2023-05-20T18:04:11.324Z,101311.59
2023-05-20T18:06:37.895Z,101310.38
2023-05-20T18:09:04.809Z,101329.88
2023-05-20T18:11:32.518Z,101321.25
2023-05-20T18:13:59.832Z,101323.59
2023-05-20T18:16:27.764Z,101323.19
2023-05-20T18:18:55.164Z,101327.16
2023-05-20T18:21:22.642Z,101329.25
2023-05-20T18:23:49.175Z,101334.25
2023-05-20T18:26:16.122Z,101333.84
2023-05-20T18:28:42.789Z,101329.84
2023-05-20T18:31:09.209Z,101323.16
2023-05-20T18:33:37.041Z,101317.06
2023-05-20T18:36:03.869Z,101312.00
2023-05-20T18:38:30.493Z,101310.72
2023-05-20T18:40:56.898Z,101316.81
2023-05-20T18:43:23.345Z,101316.78
2023-05-20T18:45:50.003Z,101321.00
2023-05-20T18:48:23.297Z,101320.78
2023-05-20T18:50:52.850Z,101326.63
2023-05-20T18:53:19.220Z,101311.53
2023-05-20T18:55:47.290Z,101311.09
2023-05-20T18:58:14.266Z,101307.72
2023-05-20T19:00:41.459Z,101314.44
2023-05-20T19:03:08.077Z,101321.13
2023-05-20T19:05:34.871Z,101320.72
2023-05-20T19:08:02.495Z,101317.56
2023-05-20T19:10:29.462Z,101310.19
2023-05-20T19:12:56.469Z,101316.06
2023-05-20T19:15:22.991Z,101317.31
2023-05-20T19:17:49.506Z,101316.06
2023-05-20T19:20:15.972Z,101317.28
2023-05-20T19:22:42.330Z,101328.59
2023-05-20T19:25:09.017Z,101328.97
2023-05-20T19:27:35.559Z,101334.84
2023-05-20T19:30:01.983Z,101330.63
2023-05-20T19:32:28.353Z,101326.44
2023-05-20T19:34:54.788Z,101324.75
2023-05-20T19:37:23.041Z,101326.00
2023-05-20T19:39:49.783Z,101327.22
2023-05-20T19:42:16.316Z,101323.84
2023-05-20T19:44:42.831Z,101325.94
2023-05-20T19:47:09.217Z,101321.72
2023-05-20T19:49:35.710Z,101329.47
2023-05-20T19:52:02.072Z,101339.72
2023-05-20T19:54:28.500Z,101333.84
2023-05-20T19:56:55.019Z,101336.75
2023-05-20T19:59:21.512Z,101340.53
2023-05-20T20:01:47.987Z,101334.44
2023-05-20T20:04:17.133Z,101334.66
2023-05-20T20:06:43.873Z,101321.22
2023-05-20T20:09:10.414Z,101315.38
2023-05-20T20:11:37.393Z,101309.47
2023-05-20T20:14:03.796Z,101311.56
2023-05-20T20:16:30.292Z,101307.38
2023-05-20T20:18:56.833Z,101313.00
2023-05-20T20:21:25.570Z,101306.72
2023-05-20T20:23:52.609Z,101297.25
2023-05-20T20:26:22.578Z,101303.94
2023-05-20T20:28:49.061Z,101305.00
2023-05-20T20:31:15.445Z,101305.19
2023-05-20T20:33:41.839Z,101299.97
2023-05-20T20:36:09.034Z,101293.88
2023-05-20T20:38:37.491Z,101290.50
2023-05-20T20:41:03.916Z,101296.34
2023-05-20T20:43:30.346Z,101303.03
2023-05-20T20:45:56.830Z,101302.19
2023-05-20T20:48:26.941Z,101298.81
2023-05-20T20:50:53.778Z,101301.53
2023-05-20T20:53:20.461Z,101305.31
2023-05-20T20:55:46.841Z,101296.28
2023-05-20T20:58:15.209Z,101301.72
2023-05-20T21:00:45.065Z,101294.63
2023-05-20T21:03:12.613Z,101296.50
2023-05-20T21:05:39.173Z,101293.13
2023-05-20T21:08:08.113Z,101295.22
2023-05-20T21:10:36.737Z,101294.59
2023-05-20T21:13:03.261Z,101283.91
2023-05-20T21:15:29.636Z,101284.09
2023-05-20T21:17:56.043Z,101281.38
2023-05-20T21:20:22.581Z,101282.41
2023-05-20T21:22:49.059Z,101276.13
2023-05-20T21:25:15.728Z,101279.03
2023-05-20T21:27:42.368Z,101275.69
2023-05-20T21:30:10.842Z,101283.84
2023-05-20T21:32:38.210Z,101276.72
2023-05-20T21:35:05.106Z,101282.34
2023-05-20T21:37:31.587Z,101270.84
2023-05-20T21:39:58.014Z,101277.13
2023-05-20T21:42:24.408Z,101274.41
2023-05-20T21:44:51.589Z,101276.47
2023-05-20T21:47:19.585Z,101272.09
2023-05-20T21:49:47.327Z,101256.81
2023-05-20T21:52:14.335Z,101264.13
2023-05-20T21:54:41.356Z,101267.88
2023-05-20T21:57:07.716Z,101260.97
2023-05-20T21:59:34.087Z,101263.00
2023-05-20T22:02:01.094Z,101253.19
2023-05-20T22:04:28.592Z,101255.25
2023-05-20T22:06:56.105Z,101249.16
2023-05-20T22:09:22.635Z,101246.63
2023-05-20T22:11:49.624Z,101246.84
2023-05-20T22:14:16.633Z,101247.03
2023-05-20T22:16:46.436Z,101258.13
2023-05-20T22:19:17.166Z,101244.06
2023-05-20T22:24:14.680Z,101255.16
2023-05-20T22:26:41.172Z,101237.34
2023-05-20T22:29:07.718Z,101226.50
2023-05-20T22:31:34.142Z,101226.69
2023-05-20T22:34:00.666Z,101225.00
2023-05-20T22:36:27.855Z,101217.88
2023-05-20T22:38:54.233Z,101206.38
2023-05-20T22:41:20.973Z,101213.88
2023-05-20T22:43:47.323Z,101215.13
2023-05-20T22:46:13.764Z,101205.47
2023-05-20T22:48:40.118Z,101195.00
2023-05-20T22:51:08.748Z,101198.97
2023-05-20T22:53:35.154Z,101186.78
2023-05-20T22:56:01.545Z,101200.78
2023-05-20T22:58:29.592Z,101188.63
2023-05-20T23:00:56.483Z,101199.03
2023-05-20T23:03:22.925Z,101182.50
2023-05-20T23:05:49.334Z,101171.38
2023-05-20T23:08:15.823Z,101172.81
2023-05-20T23:10:42.180Z,101177.16
2023-05-20T23:13:08.540Z,101172.28
2023-05-20T23:15:35.127Z,101173.06
2023-05-20T23:18:02.257Z,101161.97
2023-05-20T23:20:29.610Z,101168.16
2023-05-20T23:22:56.032Z,101165.13
2023-05-20T23:25:24.273Z,101160.50
2023-05-20T23:27:50.910Z,101148.53
2023-05-20T23:30:17.457Z,101161.84
2023-05-20T23:32:43.966Z,101152.59
2023-05-20T23:35:11.505Z,101143.16
2023-05-20T23:37:38.843Z,101156.44
2023-05-20T23:40:06.512Z,101139.91
2023-05-20T23:42:32.917Z,101139.47
2023-05-20T23:44:59.280Z,101147.16
2023-05-20T23:47:25.927Z,101140.41
2023-05-20T23:49:56.040Z,101126.19
2023-05-20T23:52:22.526Z,101135.75
2023-05-20T23:54:48.916Z,101139.03
2023-05-20T23:57:16.043Z,101149.22
2023-05-20T23:59:43.072Z,101127.09
